createdAt,value
2022-09-26T00:01:38.122Z,61.90
2022-09-26T00:04:10.505Z,61.90
2022-09-26T00:06:38.347Z,61.90
2022-09-26T00:09:05.950Z,62.00
2022-09-26T00:11:34.371Z,62.00
2022-09-26T00:14:08.763Z,62.00
2022-09-26T00:16:36.609Z,62.10
2022-09-26T00:19:04.586Z,62.10
2022-09-26T00:21:32.155Z,62.10
2022-09-26T00:24:01.001Z,62.10
2022-09-26T00:26:30.503Z,62.10
2022-09-26T00:28:58.773Z,62.00
2022-09-26T00:31:30.118Z,62.10
2022-09-26T00:33:58.244Z,62.10
2022-09-26T00:36:36.944Z,62.10
2022-09-26T00:39:09.973Z,62.10
2022-09-26T00:41:38.895Z,62.20
2022-09-26T00:44:41.356Z,62.20
2022-09-26T00:47:21.081Z,62.20
2022-09-26T00:49:51.559Z,62.20
2022-09-26T00:52:24.933Z,62.20
2022-09-26T00:54:55.666Z,62.20
2022-09-26T00:57:30.026Z,62.20
2022-09-26T01:00:05.581Z,62.30
2022-09-26T01:02:33.409Z,62.30
2022-09-26T01:05:02.042Z,62.20
2022-09-26T01:07:30.258Z,62.30
2022-09-26T01:09:58.908Z,62.30
2022-09-26T01:12:26.423Z,62.30
2022-09-26T01:14:55.797Z,62.30
2022-09-26T01:17:25.400Z,62.40
2022-09-26T01:20:27.151Z,62.40
2022-09-26T01:23:19.301Z,62.30
2022-09-26T01:26:14.445Z,62.30
2022-09-26T01:29:12.822Z,62.40
2022-09-26T01:32:26.916Z,62.40
2022-09-26T01:35:12.728Z,62.40
2022-09-26T01:37:49.481Z,62.50
2022-09-26T01:40:50.336Z,62.50
2022-09-26T01:43:40.209Z,62.50
2022-09-26T01:46:22.743Z,62.50
2022-09-26T01:49:23.146Z,62.50
2022-09-26T01:51:54.023Z,62.50
2022-09-26T01:54:30.865Z,62.50
2022-09-26T01:57:00.710Z,62.50
2022-09-26T01:59:38.339Z,62.50
2022-09-26T02:02:26.415Z,62.50
2022-09-26T02:04:59.301Z,62.50
2022-09-26T02:08:02.881Z,62.50
2022-09-26T02:10:39.328Z,62.50
2022-09-26T02:13:16.736Z,62.60
2022-09-26T02:15:48.783Z,62.60
2022-09-26T02:18:24.017Z,62.60
2022-09-26T02:21:00.963Z,62.60
2022-09-26T02:23:30.963Z,62.60
2022-09-26T02:25:58.546Z,62.60
2022-09-26T02:28:26.221Z,62.60
2022-09-26T02:30:55.900Z,62.60
2022-09-26T02:33:24.362Z,62.70
2022-09-26T02:35:54.952Z,62.70
2022-09-26T02:38:25.262Z,62.70
2022-09-26T02:41:16.090Z,62.70
2022-09-26T02:44:12.067Z,62.70
2022-09-26T02:47:17.456Z,62.70
2022-09-26T02:50:21.660Z,62.70
2022-09-26T02:53:10.612Z,62.80
2022-09-26T02:56:00.707Z,62.70
2022-09-26T02:58:42.627Z,62.80
2022-09-26T03:01:18.053Z,62.70
2022-09-26T03:04:14.915Z,62.80
2022-09-26T03:06:47.152Z,62.80
2022-09-26T03:09:17.586Z,62.80
2022-09-26T03:11:45.966Z,62.80
2022-09-26T03:14:16.608Z,62.80
2022-09-26T03:16:45.559Z,62.80
2022-09-26T03:19:22.670Z,62.90
2022-09-26T03:21:50.395Z,62.80
2022-09-26T03:24:18.231Z,62.90
2022-09-26T03:26:49.349Z,62.80
2022-09-26T03:29:18.152Z,62.80
2022-09-26T03:31:45.928Z,62.80
2022-09-26T03:34:13.487Z,62.80
2022-09-26T03:36:41.090Z,62.80
2022-09-26T03:39:10.740Z,62.80
2022-09-26T03:41:47.138Z,62.80
2022-09-26T03:44:24.511Z,62.80
2022-09-26T03:47:18.275Z,62.80
2022-09-26T03:49:49.961Z,62.90
2022-09-26T03:52:17.462Z,62.90
2022-09-26T03:54:45.658Z,62.90
2022-09-26T03:57:17.077Z,62.90
2022-09-26T03:59:55.953Z,62.80
2022-09-26T04:02:24.818Z,62.90
2022-09-26T04:05:07.234Z,62.90
2022-09-26T04:07:34.749Z,63.00
2022-09-26T04:10:02.264Z,62.90
2022-09-26T04:12:29.892Z,62.90
2022-09-26T04:14:57.465Z,62.90
2022-09-26T04:17:25.022Z,63.00
2022-09-26T04:19:53.096Z,62.90
2022-09-26T04:22:20.736Z,62.90
2022-09-26T04:24:48.670Z,62.90
2022-09-26T04:27:16.754Z,62.90
2022-09-26T04:29:46.327Z,62.90
2022-09-26T04:32:34.043Z,62.90
2022-09-26T04:35:27.552Z,63.60
2022-09-26T04:37:55.020Z,63.00
2022-09-26T04:40:22.725Z,63.00
2022-09-26T04:43:10.866Z,63.00
2022-09-26T04:45:44.727Z,63.00
2022-09-26T04:48:13.605Z,63.10
2022-09-26T04:51:15.610Z,63.10
2022-09-26T04:53:43.924Z,63.10
2022-09-26T04:56:27.721Z,63.10
2022-09-26T04:58:57.681Z,63.10
2022-09-26T05:01:28.789Z,63.10
2022-09-26T05:04:16.533Z,63.10
2022-09-26T05:06:44.119Z,63.10
2022-09-26T05:09:22.504Z,63.20
2022-09-26T05:11:58.451Z,63.20
2022-09-26T05:14:27.384Z,63.20
2022-09-26T05:16:54.943Z,63.30
2022-09-26T05:19:23.046Z,63.30
2022-09-26T05:22:08.922Z,63.40
2022-09-26T05:25:08.586Z,63.40
2022-09-26T05:27:37.494Z,63.40
2022-09-26T05:30:05.314Z,63.40
2022-09-26T05:32:32.964Z,63.40
2022-09-26T05:35:00.549Z,63.40
2022-09-26T05:37:30.896Z,63.40
2022-09-26T05:40:16.802Z,63.40
2022-09-26T05:42:49.849Z,63.30
2022-09-26T05:45:17.413Z,63.30
2022-09-26T05:47:45.330Z,63.30
2022-09-26T05:50:12.975Z,63.40
2022-09-26T05:52:41.087Z,63.40
2022-09-26T05:55:15.640Z,63.30
2022-09-26T05:58:10.146Z,63.30
2022-09-26T06:01:01.667Z,63.30
2022-09-26T06:03:34.771Z,63.30
2022-09-26T06:06:11.131Z,63.40
2022-09-26T06:08:40.290Z,63.40
2022-09-26T06:11:33.320Z,63.30
2022-09-26T06:14:01.309Z,63.40
2022-09-26T06:16:29.708Z,63.40
2022-09-26T06:18:57.649Z,63.40
2022-09-26T06:21:25.172Z,63.40
2022-09-26T06:24:01.915Z,63.40
2022-09-26T06:26:30.489Z,63.40
2022-09-26T06:29:00.593Z,63.40
2022-09-26T06:31:34.155Z,63.50
2022-09-26T06:34:12.281Z,63.60
2022-09-26T06:36:51.583Z,63.60
2022-09-26T06:39:19.092Z,63.60
2022-09-26T06:41:47.802Z,63.60
2022-09-26T06:44:29.186Z,63.60
2022-09-26T06:47:15.724Z,63.60
2022-09-26T06:49:45.381Z,63.70
2022-09-26T06:52:26.846Z,63.80
2022-09-26T06:54:55.521Z,63.70
2022-09-26T06:57:23.245Z,63.70
2022-09-26T06:59:51.187Z,63.70
2022-09-26T07:02:28.748Z,63.70
2022-09-26T07:05:16.000Z,63.80
2022-09-26T07:07:53.467Z,63.80
2022-09-26T07:10:26.044Z,63.70
2022-09-26T07:13:07.851Z,63.70
2022-09-26T07:15:37.347Z,63.80
2022-09-26T07:18:19.576Z,63.70
2022-09-26T07:21:16.218Z,63.70
2022-09-26T07:23:46.728Z,63.70
2022-09-26T07:26:14.978Z,63.70
2022-09-26T07:28:42.381Z,63.70
2022-09-26T07:31:10.433Z,63.70
2022-09-26T07:33:45.845Z,63.70
2022-09-26T07:36:14.424Z,63.70
2022-09-26T07:38:43.957Z,63.70
2022-09-26T07:41:11.745Z,63.70
2022-09-26T07:46:48.144Z,63.80
2022-09-26T07:49:34.109Z,63.90
2022-09-26T07:52:29.346Z,63.80
2022-09-26T07:55:18.990Z,63.80
2022-09-26T07:58:12.633Z,63.80
2022-09-26T08:00:58.476Z,64.10
2022-09-26T08:03:48.315Z,63.70
2022-09-26T08:06:27.778Z,63.40
2022-09-26T08:08:58.410Z,64.10
2022-09-26T08:11:46.049Z,63.80
2022-09-26T08:14:32.058Z,63.70
2022-09-26T08:17:14.418Z,63.30
2022-09-26T08:19:42.540Z,63.20
2022-09-26T08:22:10.539Z,63.20
2022-09-26T08:24:39.144Z,63.00
2022-09-26T08:27:20.920Z,62.90
2022-09-26T08:29:49.452Z,62.90
2022-09-26T08:32:20.724Z,62.70
2022-09-26T08:34:49.364Z,62.60
2022-09-26T08:37:51.373Z,62.40
2022-09-26T08:41:04.157Z,62.20
2022-09-26T08:43:50.290Z,62.10
2022-09-26T08:46:39.305Z,62.00
2022-09-26T08:49:32.746Z,62.00
2022-09-26T08:52:05.360Z,61.70
2022-09-26T08:54:41.402Z,61.80
2022-09-26T08:57:30.758Z,61.80
2022-09-26T08:59:58.418Z,61.80
2022-09-26T09:02:43.752Z,61.80
2022-09-26T09:05:33.095Z,61.80
2022-09-26T09:08:08.095Z,61.70
2022-09-26T09:10:47.380Z,61.70
2022-09-26T09:14:11.035Z,61.70
2022-09-26T09:17:35.478Z,61.70
2022-09-26T09:21:07.738Z,61.70
2022-09-26T09:24:16.150Z,61.70
2022-09-26T09:30:22.895Z,61.50
2022-09-26T09:33:04.024Z,61.40
2022-09-26T09:35:52.805Z,61.40
2022-09-26T09:38:47.320Z,61.30
2022-09-26T09:41:29.182Z,61.30
2022-09-26T09:44:04.114Z,61.10
2022-09-26T09:46:41.401Z,61.00
2022-09-26T09:49:09.431Z,60.90
2022-09-26T09:52:09.912Z,60.90
2022-09-26T09:55:05.625Z,60.70
2022-09-26T09:57:38.923Z,60.60
2022-09-26T10:00:22.704Z,60.70
2022-09-26T10:03:02.438Z,61.20
2022-09-26T10:05:45.529Z,60.50
2022-09-26T10:08:43.014Z,60.50
2022-09-26T10:11:52.457Z,60.50
2022-09-26T10:15:11.867Z,60.50
2022-09-26T10:18:24.092Z,60.40
2022-09-26T10:21:16.509Z,60.50
2022-09-26T10:23:48.995Z,60.50
2022-09-26T10:26:35.224Z,60.50
2022-09-26T10:29:34.614Z,60.50
2022-09-26T10:32:03.727Z,60.50
2022-09-26T10:34:39.392Z,60.60
2022-09-26T10:37:25.135Z,60.60
2022-09-26T10:40:18.780Z,60.50
2022-09-26T10:42:48.948Z,60.50
2022-09-26T10:45:27.385Z,60.40
2022-09-26T10:48:26.980Z,60.50
2022-09-26T10:51:42.695Z,60.40
2022-09-26T10:54:19.737Z,60.30
2022-09-26T10:56:54.382Z,60.40
2022-09-26T10:59:27.593Z,60.40
2022-09-26T11:01:59.118Z,60.40
2022-09-26T11:04:48.764Z,60.40
2022-09-26T11:07:39.804Z,60.40
2022-09-26T11:10:34.451Z,61.00
2022-09-26T11:13:28.330Z,60.40
2022-09-26T11:16:09.135Z,60.40
2022-09-26T11:18:40.915Z,60.40
2022-09-26T11:21:28.202Z,60.50
2022-09-26T11:24:29.054Z,60.40
2022-09-26T11:27:21.437Z,60.60
2022-09-26T11:30:10.740Z,60.50
2022-09-26T11:32:58.665Z,60.50
2022-09-26T11:35:44.453Z,60.60
2022-09-26T11:38:40.735Z,60.60
2022-09-26T11:41:08.242Z,60.60
2022-09-26T11:43:45.282Z,60.70
2022-09-26T11:46:46.788Z,60.70
2022-09-26T11:49:56.297Z,60.80
2022-09-26T11:52:49.033Z,61.00
2022-09-26T11:55:37.403Z,60.90
2022-09-26T11:58:36.823Z,61.00
2022-09-26T12:01:30.731Z,61.00
2022-09-26T12:04:28.361Z,61.10
2022-09-26T12:07:02.504Z,61.20
2022-09-26T12:10:07.500Z,61.20
2022-09-26T12:12:56.789Z,61.20
2022-09-26T12:15:36.889Z,61.30
2022-09-26T12:18:21.971Z,61.40
2022-09-26T12:21:13.853Z,61.30
2022-09-26T12:23:48.876Z,61.40
2022-09-26T12:26:22.146Z,61.40
2022-09-26T12:29:21.713Z,61.40
2022-09-26T12:32:01.393Z,61.50
2022-09-26T12:34:58.404Z,61.50
2022-09-26T12:37:41.693Z,61.60
2022-09-26T12:40:27.120Z,61.60
2022-09-26T12:43:21.912Z,61.60
2022-09-26T12:46:28.741Z,61.70
2022-09-26T12:49:14.858Z,61.70
2022-09-26T12:51:49.106Z,61.80
2022-09-26T12:54:56.394Z,61.80
2022-09-26T12:58:03.919Z,61.80
2022-09-26T13:00:38.952Z,61.90
2022-09-26T13:03:33.739Z,61.90
2022-09-26T13:06:08.813Z,61.90
2022-09-26T13:09:19.549Z,62.00
2022-09-26T13:12:04.151Z,62.00
2022-09-26T13:14:55.333Z,62.00
2022-09-26T13:17:24.937Z,62.10
2022-09-26T13:20:14.804Z,62.10
2022-09-26T13:22:58.837Z,62.20
2022-09-26T13:25:55.798Z,62.20
2022-09-26T13:28:25.115Z,62.20
2022-09-26T13:31:02.270Z,62.20
2022-09-26T13:33:46.365Z,62.20
2022-09-26T13:36:17.098Z,62.30
2022-09-26T13:38:53.185Z,62.30
2022-09-26T13:41:54.258Z,62.30
2022-09-26T13:44:56.009Z,62.30
2022-09-26T13:47:55.284Z,62.30
2022-09-26T13:50:43.662Z,62.30
2022-09-26T13:53:21.823Z,62.40
2022-09-26T13:56:30.508Z,62.40
2022-09-26T13:59:21.404Z,62.40
2022-09-26T14:02:16.109Z,62.50
2022-09-26T14:04:46.747Z,62.50
2022-09-26T14:07:42.835Z,62.60
2022-09-26T14:10:20.244Z,62.60
2022-09-26T14:13:10.615Z,62.60
2022-09-26T14:15:47.572Z,62.60
2022-09-26T14:18:34.538Z,62.70
2022-09-26T14:21:14.768Z,62.70
2022-09-26T14:23:44.764Z,62.80
2022-09-26T14:26:27.265Z,62.90
2022-09-26T14:28:56.752Z,63.10
2022-09-26T14:31:27.398Z,63.40
2022-09-26T14:34:21.228Z,63.30
2022-09-26T14:36:51.097Z,63.00
2022-09-26T14:39:42.350Z,63.10
2022-09-26T14:42:18.824Z,63.00
2022-09-26T14:44:51.473Z,62.90
2022-09-26T14:47:19.941Z,62.90
2022-09-26T14:50:14.819Z,62.80
2022-09-26T14:52:58.549Z,62.60
2022-09-26T14:55:27.172Z,62.50
2022-09-26T14:58:43.422Z,62.50
2022-09-26T15:01:31.697Z,62.40
2022-09-26T15:04:05.069Z,62.30
2022-09-26T15:06:43.920Z,62.30
2022-09-26T15:09:21.850Z,62.20
2022-09-26T15:12:00.934Z,62.20
2022-09-26T15:14:53.091Z,62.80
2022-09-26T15:17:27.792Z,62.20
2022-09-26T15:19:57.643Z,62.20
2022-09-26T15:22:29.151Z,62.20
2022-09-26T15:25:11.323Z,62.10
2022-09-26T15:27:45.986Z,61.90
2022-09-26T15:30:19.878Z,62.20
2022-09-26T15:32:49.312Z,62.10
2022-09-26T15:35:17.834Z,62.20
2022-09-26T15:37:46.090Z,62.10
2022-09-26T15:40:21.745Z,62.40
2022-09-26T15:43:08.172Z,62.80
2022-09-26T15:45:47.990Z,61.80
2022-09-26T15:48:27.396Z,61.70
2022-09-26T15:50:56.344Z,61.50
2022-09-26T15:53:29.326Z,61.40
2022-09-26T15:56:05.889Z,61.20
2022-09-26T15:58:54.786Z,61.10
2022-09-26T16:01:26.045Z,60.70
2022-09-26T16:04:21.442Z,60.70
2022-09-26T16:06:59.909Z,60.60
2022-09-26T16:09:39.033Z,60.30
2022-09-26T16:12:30.367Z,60.40
2022-09-26T16:15:03.088Z,60.20
2022-09-26T16:17:41.393Z,60.00
2022-09-26T16:20:10.071Z,60.00
2022-09-26T16:22:39.062Z,60.00
2022-09-26T16:25:19.079Z,60.00
2022-09-26T16:27:52.880Z,60.00
2022-09-26T16:30:23.864Z,59.90
2022-09-26T16:32:56.175Z,59.80
2022-09-26T16:35:29.524Z,59.70
2022-09-26T16:38:05.883Z,59.60
2022-09-26T16:40:36.458Z,59.40
2022-09-26T16:43:19.195Z,59.50
2022-09-26T16:46:00.682Z,59.40
2022-09-26T16:48:43.049Z,59.20
2022-09-26T16:51:19.555Z,59.00
2022-09-26T16:53:48.981Z,58.90
2022-09-26T16:56:19.344Z,58.90
2022-09-26T16:58:55.537Z,58.90
2022-09-26T17:01:42.408Z,58.80
2022-09-26T17:04:18.472Z,58.80
2022-09-26T17:06:47.453Z,58.70
2022-09-26T17:09:23.385Z,59.00
2022-09-26T17:11:53.445Z,58.80
2022-09-26T17:14:25.224Z,58.90
2022-09-26T17:16:57.272Z,58.90
2022-09-26T17:19:27.429Z,58.90
2022-09-26T17:21:55.115Z,58.90
2022-09-26T17:24:25.913Z,59.00
2022-09-26T17:27:00.221Z,59.10
2022-09-26T17:29:31.700Z,59.10
2022-09-26T17:32:00.464Z,58.90
2022-09-26T17:34:29.268Z,59.20
2022-09-26T17:36:58.642Z,59.30
2022-09-26T17:39:26.848Z,59.20
2022-09-26T17:41:55.294Z,59.20
2022-09-26T17:44:23.260Z,59.20
2022-09-26T17:46:55.545Z,59.20
2022-09-26T17:49:28.489Z,59.30
2022-09-26T17:52:00.738Z,59.80
2022-09-26T17:54:42.717Z,59.40
2022-09-26T17:57:15.221Z,59.60
2022-09-26T17:59:42.960Z,59.80
2022-09-26T18:02:25.339Z,59.60
2022-09-26T18:04:56.262Z,59.60
2022-09-26T18:07:25.244Z,59.60
2022-09-26T18:09:54.426Z,59.70
2022-09-26T18:12:24.025Z,60.30
2022-09-26T18:14:55.928Z,59.60
2022-09-26T18:17:24.041Z,59.70
2022-09-26T18:19:54.509Z,59.70
2022-09-26T18:22:30.465Z,59.80
2022-09-26T18:25:07.261Z,59.90
2022-09-26T18:27:42.248Z,59.80
2022-09-26T18:30:16.115Z,60.00
2022-09-26T18:32:47.555Z,60.00
2022-09-26T18:35:20.075Z,60.00
2022-09-26T18:37:47.923Z,60.10
2022-09-26T18:40:18.432Z,60.20
2022-09-26T18:42:46.533Z,60.20
2022-09-26T18:45:21.677Z,60.20
2022-09-26T18:47:49.473Z,60.20
2022-09-26T18:50:36.967Z,60.30
2022-09-26T18:53:14.545Z,60.30
2022-09-26T18:56:04.404Z,60.50
2022-09-26T18:58:34.134Z,60.40
2022-09-26T19:01:07.817Z,60.50
2022-09-26T19:03:38.192Z,60.50
2022-09-26T19:06:46.530Z,60.60
2022-09-26T19:09:17.033Z,60.50
2022-09-26T19:11:46.294Z,60.70
2022-09-26T19:14:23.540Z,60.50
2022-09-26T19:16:51.199Z,60.60
2022-09-26T19:19:20.407Z,60.50
2022-09-26T19:21:55.124Z,60.50
2022-09-26T19:24:31.328Z,60.50
2022-09-26T19:27:11.373Z,60.70
2022-09-26T19:29:41.623Z,60.60
2022-09-26T19:32:15.717Z,60.60
2022-09-26T19:35:08.846Z,60.60
2022-09-26T19:37:36.832Z,60.70
2022-09-26T19:40:14.797Z,60.80
2022-09-26T19:42:42.772Z,60.80
2022-09-26T19:45:13.244Z,60.80
2022-09-26T19:47:46.193Z,61.00
2022-09-26T19:50:23.562Z,60.80
2022-09-26T19:52:52.677Z,61.00
2022-09-26T19:55:26.627Z,60.80
2022-09-26T19:57:56.502Z,60.90
2022-09-26T20:00:24.346Z,61.00
2022-09-26T20:02:52.417Z,61.00
2022-09-26T20:05:25.269Z,61.00
2022-09-26T20:07:53.094Z,61.00
2022-09-26T20:10:22.701Z,61.00
2022-09-26T20:12:50.071Z,61.40
2022-09-26T20:15:20.398Z,61.20
2022-09-26T20:17:48.598Z,61.20
2022-09-26T20:20:19.772Z,61.10
2022-09-26T20:22:47.725Z,61.10
2022-09-26T20:25:28.241Z,61.10
2022-09-26T20:27:57.161Z,61.20
2022-09-26T20:30:44.947Z,61.20
2022-09-26T20:33:13.544Z,61.20
2022-09-26T20:35:47.933Z,61.30
2022-09-26T20:38:33.832Z,61.40
2022-09-26T20:41:13.308Z,61.50
2022-09-26T20:43:44.706Z,61.60
2022-09-26T20:46:12.718Z,61.70
2022-09-26T20:48:42.527Z,61.70
2022-09-26T20:51:23.780Z,61.80
2022-09-26T20:53:51.424Z,61.80
2022-09-26T20:56:21.393Z,61.80
2022-09-26T20:58:49.273Z,61.80
2022-09-26T21:01:19.214Z,61.90
2022-09-26T21:03:52.284Z,61.90
2022-09-26T21:06:26.826Z,62.00
2022-09-26T21:08:54.455Z,62.00
2022-09-26T21:11:22.711Z,61.90
2022-09-26T21:13:50.543Z,62.00
2022-09-26T21:16:21.593Z,62.00
2022-09-26T21:18:51.559Z,62.00
2022-09-26T21:21:26.571Z,62.00
2022-09-26T21:24:14.622Z,62.10
2022-09-26T21:26:42.181Z,62.20
2022-09-26T21:29:14.569Z,62.20
2022-09-26T21:31:44.973Z,62.20
2022-09-26T21:34:19.544Z,62.20
2022-09-26T21:36:48.532Z,62.20
2022-09-26T21:39:19.495Z,62.30
2022-09-26T21:41:51.084Z,62.30
2022-09-26T21:44:38.198Z,62.20
2022-09-26T21:47:05.677Z,62.20
2022-09-26T21:49:33.248Z,62.30
2022-09-26T21:52:21.803Z,62.30
2022-09-26T21:54:50.242Z,62.30
2022-09-26T21:57:26.118Z,62.30
2022-09-26T21:59:55.087Z,62.20
2022-09-26T22:02:22.594Z,62.30
2022-09-26T22:04:52.610Z,62.40
2022-09-26T22:07:20.513Z,62.30
2022-09-26T22:09:47.977Z,62.30
2022-09-26T22:12:15.549Z,62.30
2022-09-26T22:14:43.055Z,62.30
2022-09-26T22:17:10.626Z,62.20
2022-09-26T22:19:38.565Z,62.40
2022-09-26T22:22:06.189Z,62.30
2022-09-26T22:24:33.665Z,62.30
2022-09-26T22:27:01.190Z,62.20
2022-09-26T22:29:28.705Z,62.40
2022-09-26T22:31:56.236Z,62.40
2022-09-26T22:34:23.732Z,62.40
2022-09-26T22:36:51.301Z,62.40
2022-09-26T22:39:18.797Z,62.40
2022-09-26T22:41:46.261Z,62.50
2022-09-26T22:44:13.793Z,62.50
2022-09-26T22:46:41.445Z,62.40
2022-09-26T22:49:09.121Z,62.50
2022-09-26T22:51:37.284Z,62.50
2022-09-26T22:54:04.792Z,62.50
2022-09-26T22:56:32.335Z,62.50
2022-09-26T22:58:59.843Z,62.60
2022-09-26T23:01:29.170Z,62.60
2022-09-26T23:03:58.623Z,62.50
2022-09-26T23:06:26.878Z,62.50
2022-09-26T23:08:54.510Z,62.60
2022-09-26T23:11:23.659Z,62.60
2022-09-26T23:13:52.718Z,62.50
2022-09-26T23:16:23.056Z,62.60
2022-09-26T23:18:51.914Z,62.60
2022-09-26T23:21:22.337Z,62.60
2022-09-26T23:23:52.611Z,62.60
2022-09-26T23:26:23.497Z,62.60
2022-09-26T23:28:52.286Z,62.60
2022-09-26T23:31:20.634Z,62.80
2022-09-26T23:33:48.434Z,62.60
2022-09-26T23:36:16.008Z,62.50
2022-09-26T23:38:43.813Z,62.50
2022-09-26T23:41:12.703Z,62.60
2022-09-26T23:43:40.822Z,62.70
2022-09-26T23:46:09.019Z,62.60
2022-09-26T23:48:37.361Z,62.60
2022-09-26T23:51:05.283Z,62.60
2022-09-26T23:53:32.990Z,62.60
2022-09-26T23:56:09.097Z,62.60
2022-09-26T23:58:37.383Z,62.50
